首页
METAR-TAF:

METAR-TAF

机场 :

上海浦东国际机场

上海 / 浦东, 中华人民共和国

纬度: 31-07N, 经度: 121-46E, 海拔: 4米

当前天气观测

该预报发布于33分钟前的00:30 UTC
风速14节,风向
温度 9°C
湿度 100%
气压 1027 hPa
能見度: 8000
多云层高于700英尺
小雨

METAR: ZSPD 110030Z 35007MPS 8000 -RA BKN007 09/09 Q1027 NOSIG

时间: 09:03 (01:03 UTC)

预报

该预报发布于3小时和52分钟前的21:11 UTC
预报有效从11日的 00点(UTC)到 11日的 24点(UTC)
风速17节,风向,有时为29节阵风
能見度: 6000
多云层高于1600英尺

TAF: ZSPD 102111Z 1100/1124 35009G15MPS 6000 BKN016 TX10/1106Z TN03/1120Z

超过4000个机场的气象观测和天气预报(METAR&TAF报告)。

可查询的气象台以黄色和红色小点在地图上表示。

将鼠标移到小点上方,可查看气象台名称。

然后点击查看天气观测和预报。

如需切换地图:点击带黑十字的绿色按钮放大地图;点击带横线的绿色按钮缩小地图;或者点击绿色箭头查看邻近地区的地图。


METAR-TAF: